Airport View

Enter AWOS ICAO identifier for current METAR.

ex. KFNL

KDEN 190553Z 00000KT 10SM BKN110 08/M05 A3024 RMK AO2 SLP211 T00831050 10150 20056 51005

19 Apr 2019 06:24

Frequency: 125.600

Phone: 303-342-0838

Other Area AWOS: KFTG - KBKF - KAPA - KEIK

TAF KDEN 190527Z 1906/2012 15006KT P6SM SCT080 BKN120 FM190700 19007KT P6SM FEW080 SCT120 FM191400 25005KT P6SM FEW080 FM191800 03007KT P6SM FEW100 FM200000 10006KT P6SM FEW100 FM200300 18006KT P6SM SCT200